Time;durP1;ratioP1;P1;durP2;ratioP2;P2;SDS_P1;SDS_P2;PMS_P1;PMS_P2;Temp;Humidity;BMP_temperature;BMP_pressure;BME280_temperature;BME280_humidity;BME280_pressure;Samples;Min_cycle;Max_cycle;Signal;HPM_P1;HPM_P2
2021/11/27 00:01:30;;;;;;;9.85;4.75;;;;;;;3.59;nan;97813.69;4982991;28;20034;-83
2021/11/27 00:03:55;;;;;;;11.07;5.13;;;;;;;3.50;nan;97801.66;5007563;28;20033;-82
2021/11/27 00:06:24;;;;;;;6.80;4.40;;;;;;;3.38;nan;97807.31;4999513;28;20543;-82
2021/11/27 00:08:50;;;;;;;9.32;4.80;;;;;;;3.33;nan;97800.94;5005835;28;20042;-83
2021/11/27 00:11:16;;;;;;;9.02;4.90;;;;;;;3.32;nan;97799.34;4983369;28;20039;-83
2021/11/27 00:13:42;;;;;;;7.13;4.30;;;;;;;3.27;nan;97794.63;5000716;28;20054;-83
2021/11/27 00:16:07;;;;;;;7.82;4.63;;;;;;;3.29;nan;97797.88;4987468;28;20042;-84
2021/11/27 00:18:32;;;;;;;7.60;3.97;;;;;;;3.32;nan;97787.09;5006256;28;20494;-83
2021/11/27 00:21:06;;;;;;;7.00;3.80;;;;;;;3.28;nan;97787.59;5002227;28;20042;-82
2021/11/27 00:23:34;;;;;;;6.93;4.40;;;;;;;3.31;nan;97788.09;4985346;28;20042;-83
2021/11/27 00:26:00;;;;;;;7.47;3.83;;;;;;;3.30;nan;97777.81;5000227;28;20030;-83
2021/11/27 00:28:25;;;;;;;7.07;3.90;;;;;;;3.26;nan;97779.94;5004612;28;20045;-83
2021/11/27 00:30:53;;;;;;;6.13;3.70;;;;;;;3.30;nan;97785.63;5018069;28;20177;-83
2021/11/27 00:33:19;;;;;;;7.57;3.50;;;;;;;3.32;nan;97779.25;4998631;28;20097;-83
2021/11/27 00:35:44;;;;;;;7.63;3.90;;;;;;;3.38;nan;97783.78;4987755;28;20050;-83
2021/11/27 00:38:10;;;;;;;6.90;3.50;;;;;;;3.39;nan;97779.38;4998722;28;20384;-83
2021/11/27 00:40:40;;;;;;;8.38;3.80;;;;;;;3.36;nan;97774.47;5004201;28;20508;-83
2021/11/27 00:43:10;;;;;;;5.10;3.45;;;;;;;3.36;nan;97775.31;4996001;28;20038;-82
2021/11/27 00:45:36;;;;;;;5.75;2.80;;;;;;;3.34;nan;97768.66;4999325;28;20041;-83
2021/11/27 00:48:04;;;;;;;5.32;3.05;;;;;;;3.44;nan;97766.59;4997546;28;20050;-82
2021/11/27 00:50:36;;;;;;;5.13;2.58;;;;;;;3.43;nan;97770.19;5007689;28;20408;-83
2021/11/27 00:53:04;;;;;;;3.47;2.22;;;;;;;3.51;nan;97774.56;4999283;28;20042;-83
2021/11/27 00:55:31;;;;;;;4.68;2.65;;;;;;;3.49;nan;97766.88;5013077;28;20062;-84
2021/11/27 00:57:57;;;;;;;4.78;2.45;;;;;;;3.47;nan;97774.09;4998992;28;20034;-83
2021/11/27 01:00:30;;;;;;;5.40;2.60;;;;;;;3.49;nan;97772.13;5022097;28;20039;-83
2021/11/27 01:02:57;;;;;;;5.72;2.55;;;;;;;3.53;nan;97775.22;5003993;28;20097;-83
2021/11/27 01:05:23;;;;;;;5.97;2.70;;;;;;;3.49;nan;97760.84;4998757;28;20042;-83
2021/11/27 01:07:49;;;;;;;4.32;2.42;;;;;;;3.54;nan;97767.16;4982066;28;20034;-83
2021/11/27 01:10:20;;;;;;;4.55;2.33;;;;;;;3.47;nan;97752.38;4996983;28;20095;-83
2021/11/27 01:12:46;;;;;;;;;;;;;;;3.47;nan;97747.97;4996819;28;20602;-83
2021/11/27 01:15:14;;;;;;;5.38;2.20;;;;;;;3.52;nan;97753.47;4981706;28;19957;-83
2021/11/27 01:17:40;;;;;;;5.80;2.40;;;;;;;3.53;nan;97756.91;5000973;28;20034;-84
2021/11/27 01:20:07;;;;;;;4.78;2.10;;;;;;;3.63;nan;97752.25;4981045;28;20038;-83
2021/11/27 01:22:32;;;;;;;4.45;2.10;;;;;;;3.70;nan;97747.16;4989197;28;20036;-84
2021/11/27 01:24:58;;;;;;;5.28;2.30;;;;;;;3.77;nan;97755.91;4981908;28;20128;-84
2021/11/27 01:27:24;;;;;;;5.60;2.88;;;;;;;3.78;nan;97754.91;5022457;28;20058;-84
2021/11/27 01:29:49;;;;;;;4.20;2.38;;;;;;;3.79;nan;97746.91;4981293;28;20038;-83
2021/11/27 01:32:15;;;;;;;3.92;2.58;;;;;;;3.75;nan;97747.44;4989342;28;20044;-83
2021/11/27 01:34:42;;;;;;;3.47;2.25;;;;;;;3.71;nan;97743.53;4985143;28;20029;-83
2021/11/27 01:37:08;;;;;;;5.95;2.80;;;;;;;3.76;nan;97739.38;5003157;28;20069;-84
2021/11/27 01:39:33;;;;;;;5.22;2.65;;;;;;;3.70;nan;97745.34;5007389;28;20026;-83
2021/11/27 01:41:59;;;;;;;3.88;2.40;;;;;;;3.73;nan;97741.56;4981668;28;20045;-83
2021/11/27 01:44:25;;;;;;;5.38;2.53;;;;;;;3.73;nan;97744.16;4999088;28;20400;-83
2021/11/27 01:46:52;;;;;;;7.00;2.60;;;;;;;3.65;nan;97739.00;4999176;28;20026;-83
2021/11/27 01:49:17;;;;;;;3.95;2.10;;;;;;;3.66;nan;97735.41;4997759;28;20134;-83
2021/11/27 01:51:43;;;;;;;4.05;2.20;;;;;;;3.63;nan;97738.38;4998968;28;20054;-83
2021/11/27 01:54:11;;;;;;;4.70;2.42;;;;;;;3.72;nan;97740.75;4998855;28;20038;-83
2021/11/27 01:56:44;;;;;;;4.22;2.17;;;;;;;3.73;nan;97738.94;5010041;28;20034;-83
2021/11/27 01:59:10;;;;;;;5.50;2.30;;;;;;;3.74;nan;97741.38;5008964;28;20048;-83
2021/11/27 02:01:37;;;;;;;3.55;2.15;;;;;;;3.68;nan;97729.00;4999783;28;20038;-83
2021/11/27 02:04:04;;;;;;;4.35;2.38;;;;;;;3.76;nan;97722.91;5011663;28;20041;-83
2021/11/27 02:06:32;;;;;;;4.70;2.67;;;;;;;3.79;nan;97722.53;4998252;28;20025;-83
2021/11/27 02:08:58;;;;;;;2.95;2.08;;;;;;;3.75;nan;97721.28;5022877;28;20715;-83
2021/11/27 02:11:32;;;;;;;3.83;2.20;;;;;;;3.80;nan;97719.75;5002674;28;20587;-83
2021/11/27 02:13:58;;;;;;;2.83;2.00;;;;;;;3.78;nan;97728.75;5002930;28;20034;-83
2021/11/27 02:16:24;;;;;;;3.38;1.98;;;;;;;3.76;nan;97728.94;5028981;28;20034;-84
2021/11/27 02:18:49;;;;;;;4.35;2.33;;;;;;;3.75;nan;97721.28;5001223;28;20028;-84
2021/11/27 02:21:19;;;;;;;5.07;2.22;;;;;;;3.77;nan;97729.78;5008976;28;20078;-83
2021/11/27 02:23:46;;;;;;;5.13;2.30;;;;;;;3.79;nan;97725.16;5003526;28;20077;-84
2021/11/27 02:26:14;;;;;;;5.32;2.13;;;;;;;3.79;nan;97723.38;5002234;28;20292;-83
2021/11/27 02:28:44;;;;;;;4.38;2.08;;;;;;;3.74;nan;97711.81;4997669;28;20022;-82
2021/11/27 02:31:10;;;;;;;4.35;2.10;;;;;;;3.77;nan;97714.91;4999718;28;20282;-83
2021/11/27 02:33:35;;;;;;;3.53;2.05;;;;;;;3.78;nan;97710.47;4999141;28;20049;-83
2021/11/27 02:36:03;;;;;;;3.30;2.00;;;;;;;3.76;nan;97705.41;5005542;28;20052;-82
2021/11/27 02:38:28;;;;;;;3.70;2.20;;;;;;;3.73;nan;97708.38;4994920;28;20045;-83
2021/11/27 02:40:54;;;;;;;3.78;1.98;;;;;;;3.76;nan;97702.00;5004029;28;20117;-82
2021/11/27 02:43:19;;;;;;;4.47;1.80;;;;;;;3.77;nan;97696.59;5000063;28;20510;-82
2021/11/27 02:45:44;;;;;;;2.90;1.85;;;;;;;3.77;nan;97693.19;4996913;28;20049;-82
2021/11/27 02:48:10;;;;;;;3.72;1.75;;;;;;;3.73;nan;97687.47;5006034;28;20035;-82
2021/11/27 02:50:35;;;;;;;4.32;1.80;;;;;;;3.77;nan;97690.56;4986326;28;20034;-82
2021/11/27 02:53:01;;;;;;;5.55;2.25;;;;;;;3.80;nan;97690.19;5002305;28;20057;-83
2021/11/27 02:55:26;;;;;;;4.07;1.98;;;;;;;3.78;nan;97689.56;4997589;28;20185;-82
2021/11/27 02:57:51;;;;;;;4.90;1.90;;;;;;;3.76;nan;97684.50;4979017;28;20038;-82
2021/11/27 03:00:20;;;;;;;3.85;1.90;;;;;;;3.83;nan;97684.59;4996959;28;20039;-83
2021/11/27 03:02:47;;;;;;;5.07;2.40;;;;;;;3.79;nan;97686.78;4999568;28;20646;-82
2021/11/27 03:05:13;;;;;;;2.65;1.63;;;;;;;3.77;nan;97691.38;5002333;28;20279;-82
2021/11/27 03:07:38;;;;;;;3.10;1.83;;;;;;;3.81;nan;97690.03;5001158;28;20117;-82
2021/11/27 03:10:06;;;;;;;3.63;1.80;;;;;;;3.77;nan;97682.72;4985701;28;20073;-82
2021/11/27 03:12:33;;;;;;;3.65;1.55;;;;;;;3.80;nan;97688.41;5006731;28;20034;-82
2021/11/27 03:14:59;;;;;;;5.00;1.70;;;;;;;3.81;nan;97687.41;4998753;28;20038;-82
2021/11/27 03:17:24;;;;;;;3.88;1.70;;;;;;;3.82;nan;97683.00;4998383;28;20076;-82
2021/11/27 03:19:50;;;;;;;2.35;1.50;;;;;;;3.92;nan;97685.34;5004082;28;20491;-83
2021/11/27 03:22:19;;;;;;;2.45;1.48;;;;;;;3.83;nan;97680.19;4982535;28;20042;-82
2021/11/27 03:24:44;;;;;;;2.28;1.30;;;;;;;3.91;nan;97678.47;4995964;28;20035;-83
2021/11/27 03:27:10;;;;;;;3.03;1.50;;;;;;;3.91;nan;97675.88;4996506;28;20447;-83
2021/11/27 03:29:36;;;;;;;3.33;1.40;;;;;;;3.87;nan;97675.44;4978339;28;20038;-83
2021/11/27 03:32:10;;;;;;;2.47;1.40;;;;;;;3.92;nan;97677.50;4979486;28;20180;-83
2021/11/27 03:34:37;;;;;;;2.78;1.45;;;;;;;3.90;nan;97675.06;4988499;28;20027;-83
2021/11/27 03:37:03;;;;;;;2.97;1.60;;;;;;;3.94;nan;97663.25;5011131;28;20030;-82
2021/11/27 03:39:28;;;;;;;3.03;1.50;;;;;;;3.95;nan;97664.06;5014768;28;20396;-83
2021/11/27 03:41:54;;;;;;;3.25;1.48;;;;;;;3.94;nan;97678.13;4998874;28;20034;-82
2021/11/27 03:44:19;;;;;;;3.75;1.60;;;;;;;3.94;nan;97671.09;4978341;28;20089;-82
2021/11/27 03:46:45;;;;;;;2.63;1.33;;;;;;;4.09;nan;97683.38;4996475;28;20085;-83
2021/11/27 03:49:11;;;;;;;3.10;1.40;;;;;;;4.01;nan;97684.28;4978167;28;20750;-82
2021/11/27 03:51:36;;;;;;;2.47;1.58;;;;;;;3.98;nan;97682.84;4996069;28;20041;-82
2021/11/27 03:54:02;;;;;;;4.05;1.30;;;;;;;4.02;nan;97681.47;4978304;28;20046;-82
2021/11/27 03:56:29;;;;;;;3.88;1.83;;;;;;;4.01;nan;97686.88;4985923;28;20031;-82
2021/11/27 03:58:59;;;;;;;2.97;1.40;;;;;;;3.96;nan;97687.44;4995542;28;20095;-82
2021/11/27 04:01:25;;;;;;;3.40;1.58;;;;;;;4.06;nan;97688.97;4995969;28;20121;-82
2021/11/27 04:03:53;;;;;;;3.50;1.70;;;;;;;4.09;nan;97686.78;4978093;28;20305;-82
2021/11/27 04:06:18;;;;;;;8.02;1.95;;;;;;;4.10;nan;97691.03;4995513;28;20038;-82
2021/11/27 04:08:44;;;;;;;1.98;1.20;;;;;;;4.06;nan;97696.81;4995764;28;20384;-82
2021/11/27 04:11:10;;;;;;;1.48;1.25;;;;;;;4.06;nan;97688.97;5013937;28;20065;-83
2021/11/27 04:13:36;;;;;;;3.05;1.63;;;;;;;4.01;nan;97699.97;4996786;28;20059;-82
2021/11/27 04:16:01;;;;;;;3.28;1.65;;;;;;;4.06;nan;97692.38;4997759;28;20121;-84
2021/11/27 04:18:27;;;;;;;3.33;1.70;;;;;;;4.05;nan;97698.59;4995242;28;20125;-81
2021/11/27 04:20:53;;;;;;;2.67;1.80;;;;;;;4.09;nan;97699.06;5000623;28;20171;-84
2021/11/27 04:23:20;;;;;;;2.55;1.55;;;;;;;4.07;nan;97701.84;5003563;28;20034;-84
2021/11/27 04:25:45;;;;;;;3.55;1.80;;;;;;;4.13;nan;97697.72;4995262;28;20065;-83
2021/11/27 04:28:11;;;;;;;3.00;1.67;;;;;;;4.07;nan;97699.22;4985393;28;20039;-83
2021/11/27 04:30:36;;;;;;;5.03;1.80;;;;;;;4.05;nan;97701.22;4995900;28;20121;-83
2021/11/27 04:33:02;;;;;;;2.85;1.60;;;;;;;4.00;nan;97698.31;5003865;28;20474;-83
2021/11/27 04:35:29;;;;;;;2.97;1.75;;;;;;;4.02;nan;97707.59;4995792;28;20138;-84
2021/11/27 04:37:55;;;;;;;2.95;1.77;;;;;;;4.04;nan;97707.44;4991171;28;20038;-84
2021/11/27 04:40:21;;;;;;;3.47;1.60;;;;;;;4.03;nan;97713.66;5002165;28;20121;-83
2021/11/27 04:42:46;;;;;;;2.55;1.70;;;;;;;3.99;nan;97710.59;5001267;28;20026;-84
2021/11/27 04:45:12;;;;;;;2.88;1.70;;;;;;;3.91;nan;97717.69;4978078;28;20035;-84
2021/11/27 04:47:38;;;;;;;2.65;1.67;;;;;;;3.92;nan;97714.91;4978777;28;20077;-83
2021/11/27 04:50:07;;;;;;;1.88;1.50;;;;;;;3.92;nan;97709.69;4979081;28;20041;-83
2021/11/27 04:52:33;;;;;;;2.10;1.40;;;;;;;3.93;nan;97718.31;5009916;28;20161;-83
2021/11/27 04:54:58;;;;;;;3.22;1.70;;;;;;;3.90;nan;97718.69;5009244;28;20098;-83
2021/11/27 04:57:24;;;;;;;2.72;1.42;;;;;;;3.89;nan;97722.31;4994381;28;20034;-84
2021/11/27 04:59:49;;;;;;;3.17;1.38;;;;;;;3.88;nan;97725.91;5000155;28;20034;-83
2021/11/27 05:02:14;;;;;;;2.22;1.40;;;;;;;3.81;nan;97729.25;4997431;28;20043;-82
2021/11/27 05:04:40;;;;;;;2.70;1.52;;;;;;;3.79;nan;97727.75;4983907;28;20034;-84
2021/11/27 05:07:06;;;;;;;2.70;1.60;;;;;;;3.86;nan;97727.88;4981636;28;20061;-83
2021/11/27 05:09:32;;;;;;;2.17;1.58;;;;;;;3.87;nan;97732.94;4995663;28;20046;-81
2021/11/27 05:11:57;;;;;;;2.58;1.67;;;;;;;3.86;nan;97727.88;4999490;28;20098;-80
2021/11/27 05:14:22;;;;;;;3.47;1.48;;;;;;;3.84;nan;97735.91;4978150;28;20077;-84
2021/11/27 05:16:48;;;;;;;2.53;1.60;;;;;;;3.80;nan;97735.44;5002312;28;20038;-83
2021/11/27 05:19:13;;;;;;;2.40;1.65;;;;;;;3.83;nan;97726.44;4988774;28;20061;-82
2021/11/27 05:21:39;;;;;;;5.00;1.55;;;;;;;3.77;nan;97737.59;4982048;28;20034;-83
2021/11/27 05:24:04;;;;;;;3.35;1.65;;;;;;;3.88;nan;97737.16;5003981;28;20062;-81
2021/11/27 05:26:30;;;;;;;1.90;1.60;;;;;;;3.81;nan;97731.84;4998660;28;20034;-82
2021/11/27 05:28:55;;;;;;;2.30;1.58;;;;;;;3.75;nan;97732.56;5006381;28;20034;-83
2021/11/27 05:31:22;;;;;;;2.22;1.75;;;;;;;3.72;nan;97732.91;4994424;28;20038;-84
2021/11/27 05:34:09;;;;;;;2.65;1.70;;;;;;;3.75;nan;97739.59;5013977;28;20038;-82
2021/11/27 05:36:39;;;;;;;2.80;1.92;;;;;;;3.74;nan;97735.31;4998161;28;20030;-82
2021/11/27 05:39:05;;;;;;;2.45;1.70;;;;;;;3.76;nan;97741.19;5001386;28;20042;-82
2021/11/27 05:41:31;;;;;;;2.85;1.92;;;;;;;3.72;nan;97742.53;5010742;28;20038;-84
2021/11/27 05:43:58;;;;;;;2.10;1.67;;;;;;;3.73;nan;97741.56;4996479;28;20081;-83
2021/11/27 05:46:23;;;;;;;3.00;1.60;;;;;;;3.77;nan;97740.22;4997825;28;20408;-83
2021/11/27 05:48:48;;;;;;;2.72;1.85;;;;;;;3.75;nan;97750.03;4996011;28;20045;-82
2021/11/27 05:51:14;;;;;;;2.42;1.83;;;;;;;3.75;nan;97744.81;4999109;28;20035;-82
2021/11/27 05:53:40;;;;;;;2.85;1.80;;;;;;;3.70;nan;97739.31;5005792;28;20034;-82
2021/11/27 05:56:07;;;;;;;3.42;1.70;;;;;;;3.68;nan;97736.06;4997448;28;20072;-81
2021/11/27 05:58:33;;;;;;;3.63;1.90;;;;;;;3.70;nan;97734.88;4995868;28;20058;-82
2021/11/27 06:01:03;;;;;;;3.92;1.88;;;;;;;3.72;nan;97740.75;5000130;28;20420;-82
2021/11/27 06:03:29;;;;;;;4.57;1.88;;;;;;;3.70;nan;97741.91;5009986;28;20073;-82
2021/11/27 06:05:54;;;;;;;2.53;1.83;;;;;;;3.73;nan;97750.19;5004593;28;20026;-82
2021/11/27 06:08:19;;;;;;;2.40;1.80;;;;;;;3.77;nan;97754.09;5006517;28;20030;-82
2021/11/27 06:10:44;;;;;;;3.03;1.92;;;;;;;3.74;nan;97753.63;4983636;28;20033;-82
2021/11/27 06:13:10;;;;;;;3.70;1.90;;;;;;;3.70;nan;97750.56;4980118;28;20492;-82
2021/11/27 06:15:35;;;;;;;2.47;2.03;;;;;;;3.76;nan;97747.22;4995274;28;20095;-82
2021/11/27 06:18:00;;;;;;;2.97;2.05;;;;;;;3.85;nan;97757.63;4977145;28;20038;-82
2021/11/27 06:20:27;;;;;;;3.10;1.80;;;;;;;3.67;nan;97758.75;5005633;28;20042;-82
2021/11/27 06:22:52;;;;;;;2.15;1.70;;;;;;;3.68;nan;97754.34;4994480;28;20031;-83
2021/11/27 06:25:18;;;;;;;3.38;2.10;;;;;;;3.70;nan;97754.97;4997742;28;20670;-82
2021/11/27 06:27:43;;;;;;;3.60;2.30;;;;;;;3.73;nan;97765.06;5000084;28;20064;-82
2021/11/27 06:30:09;;;;;;;2.97;2.15;;;;;;;3.77;nan;97766.34;4996685;28;20074;-82
2021/11/27 06:32:35;;;;;;;3.17;2.00;;;;;;;3.78;nan;97762.75;4977544;28;20039;-82
2021/11/27 06:35:01;;;;;;;3.00;2.05;;;;;;;3.76;nan;97757.69;4994825;28;20105;-82
2021/11/27 06:37:26;;;;;;;3.35;2.38;;;;;;;3.81;nan;97767.59;4992902;28;20030;-83
2021/11/27 06:39:52;;;;;;;2.72;2.08;;;;;;;3.74;nan;97766.69;4999688;28;20026;-82
2021/11/27 06:42:18;;;;;;;3.10;2.03;;;;;;;3.75;nan;97765.72;4994965;28;20034;-82
2021/11/27 06:44:47;;;;;;;3.72;2.30;;;;;;;3.80;nan;97766.00;4993128;28;20061;-82
2021/11/27 06:47:14;;;;;;;3.75;2.45;;;;;;;3.81;nan;97767.59;5001499;28;20038;-82
2021/11/27 06:49:40;;;;;;;4.55;2.90;;;;;;;3.83;nan;97763.03;5012390;28;20041;-82
2021/11/27 06:52:06;;;;;;;3.28;2.38;;;;;;;3.78;nan;97771.38;4997387;28;20058;-81
2021/11/27 06:54:31;;;;;;;3.97;2.47;;;;;;;3.76;nan;97768.13;5002219;28;20061;-82
2021/11/27 06:56:56;;;;;;;3.90;2.30;;;;;;;3.77;nan;97768.97;4996464;28;20082;-82
2021/11/27 06:59:22;;;;;;;3.97;2.30;;;;;;;3.80;nan;97779.88;4997281;28;20058;-83
2021/11/27 07:01:47;;;;;;;3.33;2.20;;;;;;;3.77;nan;97777.63;4978992;28;20030;-82
2021/11/27 07:04:13;;;;;;;2.92;2.08;;;;;;;3.83;nan;97778.72;4996835;28;20105;-82
2021/11/27 07:06:39;;;;;;;3.20;2.35;;;;;;;3.85;nan;97775.94;4979302;28;20068;-82
2021/11/27 07:09:04;;;;;;;2.90;2.00;;;;;;;3.81;nan;97783.28;4995681;28;20034;-82
2021/11/27 07:11:30;;;;;;;4.30;2.13;;;;;;;3.76;nan;97786.44;4996823;28;20034;-83
2021/11/27 07:13:55;;;;;;;3.08;2.08;;;;;;;3.81;nan;97789.34;4997306;28;20085;-83
2021/11/27 07:16:20;;;;;;;4.72;2.53;;;;;;;3.79;nan;97786.09;4996225;28;20058;-83
2021/11/27 07:18:46;;;;;;;2.97;2.15;;;;;;;3.85;nan;97789.00;5002481;28;20026;-82
2021/11/27 07:21:12;;;;;;;3.58;2.20;;;;;;;3.84;nan;97793.41;4981842;28;20496;-83
2021/11/27 07:23:37;;;;;;;3.08;2.10;;;;;;;3.89;nan;97806.75;4997792;28;20046;-83
2021/11/27 07:26:02;;;;;;;3.97;2.35;;;;;;;3.89;nan;97809.38;5006034;28;20169;-82
2021/11/27 07:28:28;;;;;;;2.78;2.10;;;;;;;3.83;nan;97805.66;5000818;28;20117;-83
2021/11/27 07:30:53;;;;;;;2.92;2.17;;;;;;;3.92;nan;97811.63;4999088;28;20037;-83
2021/11/27 07:33:20;;;;;;;3.42;2.20;;;;;;;3.95;nan;97821.72;4998008;28;20034;-82
2021/11/27 07:35:45;;;;;;;3.55;2.33;;;;;;;3.99;nan;97830.84;4985730;28;20032;-82
2021/11/27 07:38:11;;;;;;;3.45;2.38;;;;;;;4.03;nan;97834.75;4979130;28;20062;-84
2021/11/27 07:40:36;;;;;;;2.90;2.10;;;;;;;4.08;nan;97830.81;4998831;28;20074;-82
2021/11/27 07:43:05;;;;;;;2.88;2.10;;;;;;;4.04;nan;97836.38;4994982;28;20499;-85
2021/11/27 07:45:34;;;;;;;3.83;2.60;;;;;;;4.08;nan;97838.66;4999663;28;20513;-84
2021/11/27 07:47:59;;;;;;;3.22;2.38;;;;;;;4.04;nan;97844.22;4986295;28;20064;-84
2021/11/27 07:50:25;;;;;;;2.95;2.00;;;;;;;4.04;nan;97841.59;4977474;28;20034;-84
2021/11/27 07:52:50;;;;;;;3.25;2.38;;;;;;;4.09;nan;97851.53;4983785;28;20042;-84
2021/11/27 07:55:15;;;;;;;3.10;2.08;;;;;;;4.16;nan;97855.06;5003152;28;20031;-82
2021/11/27 07:57:41;;;;;;;3.13;2.28;;;;;;;4.23;nan;97858.59;5017795;28;20039;-83
2021/11/27 08:00:07;;;;;;;3.67;2.28;;;;;;;4.23;nan;97865.63;5000063;28;20034;-84
2021/11/27 08:02:32;;;;;;;2.67;1.88;;;;;;;4.27;nan;97872.16;4996486;28;20106;-83
2021/11/27 08:04:57;;;;;;;4.40;2.20;;;;;;;4.26;nan;97873.94;4980674;28;20030;-83
2021/11/27 08:07:23;;;;;;;2.67;2.15;;;;;;;4.31;nan;97881.25;4996774;28;20065;-82
2021/11/27 08:09:48;;;;;;;3.42;2.60;;;;;;;4.30;nan;97874.41;4995742;28;20205;-84
2021/11/27 08:12:13;;;;;;;3.28;2.17;;;;;;;4.25;nan;97874.13;4978080;28;20030;-83
2021/11/27 08:14:38;;;;;;;3.00;2.08;;;;;;;4.26;nan;97880.97;4995579;28;20065;-83
2021/11/27 08:17:04;;;;;;;3.03;2.20;;;;;;;4.21;nan;97881.50;4996152;28;20108;-83
2021/11/27 08:19:30;;;;;;;2.90;2.10;;;;;;;4.25;nan;97889.81;4986142;28;20030;-82
2021/11/27 08:21:55;;;;;;;3.03;2.08;;;;;;;4.36;nan;97888.56;4996998;28;20034;-83
2021/11/27 08:24:21;;;;;;;3.17;2.22;;;;;;;4.31;nan;97893.53;4977406;28;20111;-81
2021/11/27 08:26:47;;;;;;;3.80;2.30;;;;;;;4.26;nan;97886.22;5000700;28;20084;-82
2021/11/27 08:29:12;;;;;;;4.10;2.33;;;;;;;4.21;nan;97897.19;4997141;28;20049;-83
2021/11/27 08:31:39;;;;;;;3.42;2.13;;;;;;;4.26;nan;97896.66;4978269;28;20053;-81
2021/11/27 08:34:06;;;;;;;3.90;2.22;;;;;;;4.31;nan;97896.94;5000730;28;20512;-82
2021/11/27 08:36:31;;;;;;;3.03;2.45;;;;;;;4.32;nan;97903.03;4994568;28;20503;-84
2021/11/27 08:38:57;;;;;;;3.67;2.40;;;;;;;4.32;nan;97909.06;4976542;28;20058;-82
2021/11/27 08:41:22;;;;;;;3.33;2.35;;;;;;;4.29;nan;97913.81;4996139;28;20084;-84
2021/11/27 08:43:48;;;;;;;2.78;2.00;;;;;;;4.33;nan;97918.50;4981046;28;20049;-82
2021/11/27 08:46:13;;;;;;;3.25;2.30;;;;;;;4.30;nan;97918.06;4992912;28;20088;-81
2021/11/27 08:48:38;;;;;;;2.50;1.67;;;;;;;4.43;nan;97921.72;4991910;28;20042;-82
2021/11/27 08:51:06;;;;;;;3.25;2.13;;;;;;;4.56;nan;97928.16;4992903;28;20504;-84
2021/11/27 08:53:32;;;;;;;4.07;1.90;;;;;;;4.58;nan;97929.59;4993771;28;20048;-84
2021/11/27 08:55:57;;;;;;;2.92;1.73;;;;;;;4.58;nan;97931.41;4975489;28;20113;-83
2021/11/27 08:58:22;;;;;;;2.90;1.65;;;;;;;4.55;nan;97931.75;4993717;28;20044;-82
2021/11/27 09:00:48;;;;;;;2.30;1.73;;;;;;;4.58;nan;97936.66;4994550;28;20038;-82
2021/11/27 09:03:14;;;;;;;3.72;1.92;;;;;;;4.60;nan;97935.47;5002758;28;20113;-81
2021/11/27 09:05:39;;;;;;;2.63;1.65;;;;;;;4.59;nan;97944.31;5011361;28;20030;-84
2021/11/27 09:08:05;;;;;;;2.70;1.75;;;;;;;4.63;nan;97934.31;5005171;28;20050;-82
2021/11/27 09:10:31;;;;;;;2.67;1.83;;;;;;;4.70;nan;97944.88;4992834;28;20050;-83
2021/11/27 09:12:58;;;;;;;2.97;1.70;;;;;;;4.70;nan;97945.69;4993642;28;20039;-81
2021/11/27 09:15:24;;;;;;;2.95;1.95;;;;;;;4.68;nan;97940.63;5002718;28;20046;-82
2021/11/27 09:17:49;;;;;;;2.25;1.35;;;;;;;4.64;nan;97943.78;4975535;28;20038;-83
2021/11/27 09:20:14;;;;;;;2.88;1.52;;;;;;;4.67;nan;97949.47;4988162;28;20034;-81
2021/11/27 09:22:40;;;;;;;2.20;1.50;;;;;;;4.76;nan;97954.63;4994018;28;20054;-84
2021/11/27 09:25:06;;;;;;;2.50;1.60;;;;;;;4.76;nan;97963.28;5008382;28;20030;-82
2021/11/27 09:27:31;;;;;;;2.83;1.63;;;;;;;4.73;nan;97957.59;4993122;28;20038;-84
2021/11/27 09:29:57;;;;;;;2.45;1.60;;;;;;;4.77;nan;97962.31;4978747;28;20305;-83
2021/11/27 09:32:22;;;;;;;2.40;1.70;;;;;;;4.72;nan;97958.59;4994283;28;20050;-82
2021/11/27 09:34:48;;;;;;;3.28;1.70;;;;;;;4.81;nan;97973.22;4979472;28;20031;-83
2021/11/27 09:37:16;;;;;;;2.58;1.77;;;;;;;4.83;nan;97972.06;5000058;28;20542;-81
2021/11/27 09:39:43;;;;;;;3.20;2.00;;;;;;;4.94;nan;97983.13;5006361;28;20034;-82
2021/11/27 09:42:11;;;;;;;2.67;1.60;;;;;;;4.95;nan;97979.50;4999911;28;20149;-83
2021/11/27 09:44:37;;;;;;;2.30;1.65;;;;;;;4.97;nan;97985.38;4997865;28;20041;-83
2021/11/27 09:47:04;;;;;;;2.45;1.70;;;;;;;4.92;nan;97991.13;4998960;28;20038;-83
2021/11/27 09:49:29;;;;;;;2.20;1.70;;;;;;;5.05;nan;97996.59;5002689;28;20045;-83
2021/11/27 09:51:55;;;;;;;3.42;2.05;;;;;;;5.07;nan;97994.56;4976710;28;20038;-83
2021/11/27 09:54:22;;;;;;;3.25;2.00;;;;;;;5.05;nan;98001.00;4976699;28;20123;-83
2021/11/27 09:56:52;;;;;;;3.70;1.90;;;;;;;4.94;nan;97989.16;4989340;28;20031;-82
2021/11/27 09:59:17;;;;;;;2.50;1.98;;;;;;;4.92;nan;97993.75;4995780;28;20046;-83
2021/11/27 10:01:46;;;;;;;3.33;2.08;;;;;;;4.94;nan;98001.44;4994322;28;20030;-83
2021/11/27 10:04:14;;;;;;;3.40;1.95;;;;;;;4.97;nan;98001.88;4993955;28;20043;-82
2021/11/27 10:06:44;;;;;;;3.00;2.13;;;;;;;4.98;nan;98006.16;5008874;28;20034;-83
2021/11/27 10:09:14;;;;;;;2.75;1.90;;;;;;;5.02;nan;98006.59;4995659;28;20034;-83
2021/11/27 10:11:41;;;;;;;3.85;2.00;;;;;;;4.97;nan;98009.75;5010572;28;20408;-83
2021/11/27 10:14:08;;;;;;;2.97;1.98;;;;;;;4.97;nan;97998.47;5012706;28;20034;-83
2021/11/27 10:16:54;;;;;;;3.22;2.00;;;;;;;4.93;nan;98002.41;4998256;28;20100;-83
2021/11/27 10:19:19;;;;;;;3.10;1.98;;;;;;;4.97;nan;97994.03;5006238;28;20093;-84
2021/11/27 10:21:53;;;;;;;2.85;2.10;;;;;;;5.11;nan;98000.28;4982094;28;20334;-82
2021/11/27 10:24:23;;;;;;;4.60;2.05;;;;;;;5.13;nan;98003.53;5003431;28;20039;-83
2021/11/27 10:26:52;;;;;;;4.15;2.17;;;;;;;5.14;nan;98007.78;5000645;28;20117;-84
2021/11/27 10:29:26;;;;;;;5.63;2.30;;;;;;;5.18;nan;98010.88;5003559;28;20038;-83
2021/11/27 10:32:12;;;;;;;2.95;2.08;;;;;;;5.06;nan;98006.06;5003914;28;20035;-84
2021/11/27 10:34:44;;;;;;;2.97;2.10;;;;;;;5.12;nan;98007.13;4988059;28;20405;-84
2021/11/27 10:37:24;;;;;;;3.35;1.92;;;;;;;5.16;nan;98010.22;5012632;28;20149;-83
2021/11/27 10:40:08;;;;;;;2.58;1.95;;;;;;;5.19;nan;98010.66;4997657;28;20041;-84
2021/11/27 10:42:34;;;;;;;3.35;2.15;;;;;;;5.17;nan;98012.66;4990414;28;20041;-84
2021/11/27 10:45:18;;;;;;;2.63;1.90;;;;;;;5.19;nan;98018.53;5013884;28;20046;-84
2021/11/27 10:47:44;;;;;;;4.18;2.33;;;;;;;5.05;nan;98019.31;4995554;28;20034;-85
2021/11/27 10:50:17;;;;;;;3.00;2.20;;;;;;;5.15;nan;98016.44;5012977;28;20046;-84
2021/11/27 10:52:43;;;;;;;3.72;2.30;;;;;;;5.20;nan;98020.19;5003917;28;20041;-84
2021/11/27 10:55:16;;;;;;;3.78;2.20;;;;;;;5.28;nan;98019.28;5004835;28;20045;-85
2021/11/27 10:57:43;;;;;;;2.90;1.90;;;;;;;5.35;nan;98024.63;4998180;28;20038;-83
2021/11/27 11:00:35;;;;;;;3.20;2.30;;;;;;;5.49;nan;98029.03;5004145;28;20209;-85
2021/11/27 11:03:01;;;;;;;;;;;;;;;5.44;nan;98026.97;4986891;28;20117;-85
2021/11/27 11:05:45;;;;;;;3.35;2.08;;;;;;;5.48;nan;98033.47;4996812;28;20426;-82
2021/11/27 11:08:10;;;;;;;3.38;2.20;;;;;;;5.32;nan;98031.84;4979847;28;20048;-85
2021/11/27 11:10:37;;;;;;;3.45;1.85;;;;;;;5.40;nan;98038.78;4999443;28;20058;-83
2021/11/27 11:13:06;;;;;;;2.83;1.80;;;;;;;5.40;nan;98038.00;5021466;28;20139;-81
2021/11/27 11:15:33;;;;;;;2.53;1.58;;;;;;;5.21;nan;98040.13;5013097;28;20038;-84
2021/11/27 11:18:05;;;;;;;2.38;1.55;;;;;;;5.27;nan;98043.84;4983473;28;20086;-83
2021/11/27 11:20:30;;;;;;;2.85;1.55;;;;;;;5.14;nan;98044.44;4986107;28;20039;-84
2021/11/27 11:23:01;;;;;;;2.65;1.67;;;;;;;5.05;nan;98048.13;4998958;28;20041;-83
2021/11/27 11:25:27;;;;;;;;;;;;;;;5.09;nan;98052.84;5000357;28;20034;-83
2021/11/27 11:27:53;;;;;;;2.60;1.60;;;;;;;5.06;nan;98057.63;4997342;28;19924;-85
2021/11/27 11:30:23;;;;;;;2.33;1.70;;;;;;;5.07;nan;98060.06;4987347;28;20030;-84
2021/11/27 11:32:50;;;;;;;2.45;1.75;;;;;;;5.18;nan;98056.22;5011397;28;20042;-84
2021/11/27 11:35:15;;;;;;;3.38;1.60;;;;;;;5.11;nan;98063.16;5002278;28;20038;-84
2021/11/27 11:37:41;;;;;;;;;;;;;;;5.22;nan;98062.72;4997535;28;20097;-84
2021/11/27 11:40:07;;;;;;;3.13;2.00;;;;;;;5.09;nan;98062.50;5006826;28;19918;-82
2021/11/27 11:42:33;;;;;;;441.30;322.67;;;;;;;5.21;nan;98068.94;5029786;28;20414;-84
2021/11/27 11:44:59;;;;;;;2.97;1.95;;;;;;;5.16;nan;98065.25;4984202;28;20112;-84
2021/11/27 11:47:26;;;;;;;2.97;1.90;;;;;;;5.05;nan;98076.94;5011923;28;20293;-83
2021/11/27 11:50:00;;;;;;;3.25;2.05;;;;;;;5.14;nan;98075.88;4981230;28;20034;-82
2021/11/27 11:52:54;;;;;;;5.07;2.55;;;;;;;4.99;nan;98080.28;5010494;28;20129;-84
2021/11/27 11:55:20;;;;;;;3.25;1.90;;;;;;;4.87;nan;98078.06;4996325;28;20043;-84
2021/11/27 11:57:53;;;;;;;3.42;2.33;;;;;;;4.94;nan;98077.38;4979300;28;20062;-84
2021/11/27 12:00:18;;;;;;;4.25;2.40;;;;;;;4.98;nan;98083.88;5011365;28;20117;-83